createdAt,value
2023-05-23T00:01:21.351Z,16.26
2023-05-23T00:03:49.389Z,16.27
2023-05-23T00:06:21.224Z,16.12
2023-05-23T00:08:48.355Z,16.28
2023-05-23T00:11:15.197Z,16.35
2023-05-23T00:13:42.073Z,16.56
2023-05-23T00:16:12.563Z,16.34
2023-05-23T00:18:42.999Z,16.09
2023-05-23T00:21:10.079Z,16.16
2023-05-23T00:23:36.585Z,16.20
2023-05-23T00:26:03.871Z,16.24
2023-05-23T00:28:30.472Z,16.17
2023-05-23T00:30:56.990Z,16.28
2023-05-23T00:33:23.811Z,16.44
2023-05-23T00:35:50.470Z,16.40
2023-05-23T00:38:17.718Z,16.49
2023-05-23T00:40:44.460Z,16.63
2023-05-23T00:43:10.992Z,16.51
2023-05-23T00:45:37.517Z,16.49
2023-05-23T00:48:05.033Z,16.52
2023-05-23T00:50:33.666Z,16.58
2023-05-23T00:53:01.728Z,16.52
2023-05-23T00:55:29.062Z,16.23
2023-05-23T00:57:57.221Z,16.35
2023-05-23T01:00:25.616Z,16.32
2023-05-23T01:02:53.532Z,16.42
2023-05-23T01:05:22.700Z,16.07
2023-05-23T01:07:51.171Z,16.15
2023-05-23T01:10:21.324Z,15.97
2023-05-23T01:12:58.374Z,16.21
2023-05-23T01:15:55.819Z,16.24
2023-05-23T01:18:35.209Z,16.18
2023-05-23T01:21:09.852Z,16.10
2023-05-23T01:23:55.767Z,16.08
2023-05-23T01:26:32.425Z,16.18
2023-05-23T01:29:10.161Z,16.10
2023-05-23T01:31:44.744Z,16.22
2023-05-23T01:34:12.808Z,16.10
2023-05-23T01:36:43.690Z,16.11
2023-05-23T01:39:10.762Z,16.10
2023-05-23T01:41:37.596Z,16.01
2023-05-23T01:44:05.379Z,15.77
2023-05-23T01:46:34.274Z,16.06
2023-05-23T01:49:03.688Z,16.00
2023-05-23T01:51:31.652Z,16.02
2023-05-23T01:53:58.609Z,15.76
2023-05-23T01:56:25.328Z,15.51
2023-05-23T01:58:52.035Z,15.56
2023-05-23T02:01:18.833Z,15.69
2023-05-23T02:03:45.724Z,15.71
2023-05-23T02:06:12.547Z,15.56
2023-05-23T02:08:39.119Z,15.59
2023-05-23T02:11:05.881Z,15.30
2023-05-23T02:13:32.340Z,15.46
2023-05-23T02:15:59.047Z,15.39
2023-05-23T02:18:26.430Z,15.38
2023-05-23T02:20:52.930Z,15.44
2023-05-23T02:23:19.363Z,15.57
2023-05-23T02:25:45.900Z,15.44
2023-05-23T02:28:12.995Z,15.57
2023-05-23T02:30:40.137Z,15.55
2023-05-23T02:33:08.170Z,15.65
2023-05-23T02:35:34.820Z,15.66
2023-05-23T02:38:01.396Z,15.71
2023-05-23T02:40:27.850Z,15.63
2023-05-23T02:42:57.217Z,15.95
2023-05-23T02:45:24.742Z,15.97
2023-05-23T02:47:51.399Z,16.05
2023-05-23T02:50:18.071Z,15.99
2023-05-23T02:52:45.065Z,16.02
2023-05-23T02:55:11.669Z,16.05
2023-05-23T02:57:38.188Z,16.07
2023-05-23T03:00:05.114Z,16.11
2023-05-23T03:02:32.035Z,15.92
2023-05-23T03:04:58.659Z,16.26
2023-05-23T03:07:28.706Z,16.21
2023-05-23T03:09:56.485Z,16.21
2023-05-23T03:12:25.459Z,16.24
2023-05-23T03:14:52.133Z,16.25
2023-05-23T03:17:19.063Z,16.08
2023-05-23T03:19:45.787Z,16.41
2023-05-23T03:22:12.449Z,16.43
2023-05-23T03:24:39.047Z,16.33
2023-05-23T03:27:05.860Z,16.37
2023-05-23T03:29:33.010Z,16.33
2023-05-23T03:31:59.720Z,16.33
2023-05-23T03:34:26.898Z,16.13
2023-05-23T03:36:53.731Z,16.41
2023-05-23T03:39:20.552Z,16.16
2023-05-23T03:41:47.557Z,16.33
2023-05-23T03:44:14.912Z,16.36
2023-05-23T03:46:41.970Z,16.22
2023-05-23T03:49:08.794Z,16.36
2023-05-23T03:51:36.028Z,16.28
2023-05-23T03:54:02.787Z,16.06
2023-05-23T03:56:29.423Z,16.26
2023-05-23T03:58:56.120Z,16.00
2023-05-23T04:01:22.929Z,16.28
2023-05-23T04:03:50.054Z,16.20
2023-05-23T04:06:17.493Z,16.12
2023-05-23T04:08:44.273Z,16.18
2023-05-23T04:11:10.989Z,15.99
2023-05-23T04:13:38.354Z,16.16
2023-05-23T04:16:06.048Z,16.02
2023-05-23T04:18:39.509Z,16.29
2023-05-23T04:21:06.494Z,16.32
2023-05-23T04:23:33.064Z,15.98
2023-05-23T04:26:00.454Z,16.17
2023-05-23T04:28:27.997Z,16.25
2023-05-23T04:30:54.692Z,16.01
2023-05-23T04:33:21.676Z,16.27
2023-05-23T04:35:49.502Z,15.99
2023-05-23T04:38:16.042Z,16.14
2023-05-23T04:40:42.963Z,16.17
2023-05-23T04:43:10.243Z,16.38
2023-05-23T04:45:38.224Z,16.21
2023-05-23T04:48:04.794Z,16.41
2023-05-23T04:50:33.372Z,16.40
2023-05-23T04:52:59.956Z,16.14
2023-05-23T04:55:26.725Z,16.23
2023-05-23T04:57:53.596Z,16.34
2023-05-23T05:00:20.429Z,16.27
2023-05-23T05:02:47.021Z,16.35
2023-05-23T05:05:13.582Z,16.36
2023-05-23T05:07:40.512Z,16.41
2023-05-23T05:10:07.932Z,16.27
2023-05-23T05:12:34.610Z,16.32
2023-05-23T05:15:01.275Z,16.49
2023-05-23T05:17:28.110Z,16.40
2023-05-23T05:19:54.660Z,16.40
2023-05-23T05:22:21.616Z,16.31
2023-05-23T05:24:48.288Z,16.13
2023-05-23T05:27:14.846Z,16.19
2023-05-23T05:29:42.315Z,16.08
2023-05-23T05:32:09.173Z,15.91
2023-05-23T05:34:35.816Z,16.03
2023-05-23T05:37:02.708Z,16.16
2023-05-23T05:39:29.300Z,16.19
2023-05-23T05:41:56.268Z,16.15
2023-05-23T05:44:22.688Z,16.12
2023-05-23T05:46:49.456Z,16.21
2023-05-23T05:49:16.484Z,15.91
2023-05-23T05:51:42.908Z,15.75
2023-05-23T05:54:09.377Z,15.78
2023-05-23T05:56:35.913Z,15.82
2023-05-23T05:59:02.421Z,15.77
2023-05-23T06:01:29.145Z,15.77
2023-05-23T06:03:56.350Z,15.79
2023-05-23T06:06:23.088Z,15.67
2023-05-23T06:08:49.561Z,15.71
2023-05-23T06:11:16.037Z,15.68
2023-05-23T06:13:43.129Z,15.74
2023-05-23T06:16:09.797Z,15.90
2023-05-23T06:18:36.289Z,15.68
2023-05-23T06:21:02.834Z,15.65
2023-05-23T06:23:29.394Z,15.63
2023-05-23T06:25:56.413Z,15.68
2023-05-23T06:28:22.948Z,15.83
2023-05-23T06:30:49.618Z,15.58
2023-05-23T06:33:16.470Z,15.84
2023-05-23T06:35:43.242Z,16.08
2023-05-23T06:38:09.775Z,16.27
2023-05-23T06:40:36.373Z,16.92
2023-05-23T06:43:03.568Z,18.33
2023-05-23T06:45:30.056Z,19.12
2023-05-23T06:47:57.006Z,18.23
2023-05-23T06:50:23.516Z,17.61
2023-05-23T06:52:50.179Z,17.43
2023-05-23T06:55:19.360Z,17.49
2023-05-23T06:57:46.839Z,17.24
2023-05-23T07:00:14.160Z,17.03
2023-05-23T07:02:40.841Z,16.69
2023-05-23T07:05:07.954Z,16.96
2023-05-23T07:07:34.618Z,16.56
2023-05-23T07:10:02.022Z,16.89
2023-05-23T07:12:28.556Z,17.08
2023-05-23T07:14:55.475Z,16.81
2023-05-23T07:17:22.659Z,16.72
2023-05-23T07:19:49.374Z,17.02
2023-05-23T07:22:15.826Z,16.90
2023-05-23T07:24:42.364Z,16.73
2023-05-23T07:27:08.824Z,16.63
2023-05-23T07:29:35.448Z,16.34
2023-05-23T07:32:01.918Z,16.62
2023-05-23T07:34:28.458Z,16.64
2023-05-23T07:36:54.966Z,16.64
2023-05-23T07:39:22.647Z,16.31
2023-05-23T07:41:50.176Z,16.49
2023-05-23T07:44:18.950Z,16.61
2023-05-23T07:46:45.646Z,16.44
2023-05-23T07:49:12.186Z,16.31
2023-05-23T07:51:38.685Z,16.58
2023-05-23T07:54:05.559Z,16.41
2023-05-23T07:56:32.010Z,16.46
2023-05-23T07:58:58.440Z,16.85
2023-05-23T08:01:25.610Z,16.73
2023-05-23T08:03:52.284Z,16.17
2023-05-23T08:06:18.770Z,16.33
2023-05-23T08:08:45.225Z,16.31
2023-05-23T08:11:11.702Z,16.57
2023-05-23T08:13:38.605Z,16.48
2023-05-23T08:16:05.311Z,16.60
2023-05-23T08:18:31.793Z,16.62
2023-05-23T08:20:58.401Z,16.49
2023-05-23T08:23:25.481Z,16.59
2023-05-23T08:25:53.157Z,16.67
2023-05-23T08:28:19.591Z,16.58
2023-05-23T08:30:46.865Z,16.35
2023-05-23T08:33:13.426Z,16.33
2023-05-23T08:35:41.685Z,16.46
2023-05-23T08:38:08.913Z,16.61
2023-05-23T08:40:37.160Z,16.49
2023-05-23T08:43:03.933Z,16.55
2023-05-23T08:45:31.164Z,16.69
2023-05-23T08:48:01.389Z,17.15
2023-05-23T08:50:30.520Z,17.03
2023-05-23T08:52:58.692Z,16.96
2023-05-23T08:55:27.353Z,17.23
2023-05-23T08:58:00.813Z,16.77
2023-05-23T09:00:28.339Z,16.83
2023-05-23T09:02:55.256Z,16.74
2023-05-23T09:05:22.055Z,16.91
2023-05-23T09:07:55.090Z,16.43
2023-05-23T09:10:21.810Z,16.77
2023-05-23T09:12:49.443Z,16.79
2023-05-23T09:15:17.133Z,16.90
2023-05-23T09:17:45.422Z,16.48
2023-05-23T09:20:15.051Z,16.35
2023-05-23T09:22:45.731Z,16.38
2023-05-23T09:25:12.355Z,15.96
2023-05-23T09:27:39.161Z,16.06
2023-05-23T09:30:10.641Z,16.34
2023-05-23T09:32:37.287Z,16.30
2023-05-23T09:35:06.124Z,16.51
2023-05-23T09:37:41.340Z,16.00
2023-05-23T09:40:13.671Z,16.24
2023-05-23T09:42:48.121Z,16.31
2023-05-23T09:45:16.355Z,16.00
2023-05-23T09:47:53.065Z,16.31
2023-05-23T09:50:20.863Z,16.24
2023-05-23T09:52:48.089Z,16.33
2023-05-23T09:55:14.952Z,16.20
2023-05-23T09:57:43.377Z,16.16
2023-05-23T10:00:12.407Z,16.00
2023-05-23T10:03:13.765Z,16.32
2023-05-23T10:05:52.992Z,16.44
2023-05-23T10:08:27.451Z,16.60
2023-05-23T10:10:57.036Z,16.81
2023-05-23T10:13:28.538Z,16.42
2023-05-23T10:16:02.806Z,16.42
2023-05-23T10:18:31.682Z,16.65
2023-05-23T10:21:07.057Z,16.83
2023-05-23T10:23:34.117Z,16.57
2023-05-23T10:26:01.133Z,16.89
2023-05-23T10:28:27.753Z,17.00
2023-05-23T10:30:54.725Z,17.01
2023-05-23T10:33:23.160Z,17.00
2023-05-23T10:36:42.022Z,17.04
2023-05-23T10:39:19.129Z,17.10
2023-05-23T10:42:01.167Z,16.89
2023-05-23T10:44:31.384Z,16.67
2023-05-23T10:47:01.628Z,16.82
2023-05-23T10:49:46.708Z,16.65
2023-05-23T10:52:16.421Z,16.87
2023-05-23T10:54:44.550Z,16.85
2023-05-23T10:57:12.935Z,16.68
2023-05-23T10:59:40.659Z,16.70
2023-05-23T11:02:17.821Z,16.59
2023-05-23T11:04:46.447Z,16.62
2023-05-23T11:07:31.071Z,16.68
2023-05-23T11:10:23.686Z,16.55
2023-05-23T11:12:50.199Z,16.27
2023-05-23T11:15:16.788Z,16.37
2023-05-23T11:17:54.690Z,16.41
2023-05-23T11:20:25.136Z,16.09
2023-05-23T11:22:59.884Z,16.23
2023-05-23T11:25:43.176Z,16.30
2023-05-23T11:28:13.083Z,16.38
2023-05-23T11:30:40.517Z,16.26
2023-05-23T11:33:13.893Z,16.01
2023-05-23T11:35:45.831Z,16.08
2023-05-23T11:38:14.068Z,15.80
2023-05-23T11:40:43.089Z,15.81
2023-05-23T11:43:11.923Z,15.59
2023-05-23T11:45:39.600Z,15.77
2023-05-23T11:48:13.695Z,15.51
2023-05-23T11:50:48.109Z,15.52
2023-05-23T11:53:21.173Z,15.42
2023-05-23T11:56:00.327Z,15.07
2023-05-23T11:58:30.312Z,14.83
2023-05-23T12:01:05.584Z,14.95
2023-05-23T12:03:33.062Z,14.79
2023-05-23T12:06:01.862Z,14.80
2023-05-23T12:08:28.417Z,14.79
2023-05-23T12:11:00.389Z,14.71
2023-05-23T12:13:29.431Z,15.21
2023-05-23T12:15:58.630Z,15.02
2023-05-23T12:18:28.888Z,14.85
2023-05-23T12:20:56.070Z,15.14
2023-05-23T12:23:24.836Z,15.08
2023-05-23T12:25:53.569Z,14.87
2023-05-23T12:28:36.737Z,15.17
2023-05-23T12:31:16.204Z,15.47
2023-05-23T12:33:44.690Z,15.18
2023-05-23T12:36:12.018Z,14.98
2023-05-23T12:38:40.585Z,15.23
2023-05-23T12:41:20.401Z,15.20
2023-05-23T12:43:52.207Z,15.32
2023-05-23T12:46:26.159Z,15.34
2023-05-23T12:48:53.854Z,14.87
2023-05-23T12:51:21.151Z,15.09
2023-05-23T12:53:48.105Z,15.34
2023-05-23T12:56:14.556Z,15.34
2023-05-23T12:58:41.478Z,15.43
2023-05-23T13:01:08.079Z,15.14
2023-05-23T13:03:34.674Z,15.53
2023-05-23T13:06:01.210Z,15.43
2023-05-23T13:08:27.738Z,15.25
2023-05-23T13:10:54.560Z,15.06
2023-05-23T13:13:21.373Z,15.45
2023-05-23T13:15:50.499Z,15.16
2023-05-23T13:18:17.834Z,15.23
2023-05-23T13:20:44.412Z,15.25
2023-05-23T13:23:12.142Z,15.09
2023-05-23T13:25:38.884Z,15.27
2023-05-23T13:28:05.765Z,15.00
2023-05-23T13:30:32.251Z,14.88
2023-05-23T13:32:58.953Z,14.80
2023-05-23T13:35:25.685Z,15.16
2023-05-23T13:37:52.145Z,14.95
2023-05-23T13:40:21.399Z,14.98
2023-05-23T13:42:51.213Z,14.84
2023-05-23T13:45:18.961Z,14.49
2023-05-23T13:47:46.679Z,14.83
2023-05-23T13:50:14.534Z,14.76
2023-05-23T13:52:44.838Z,14.63
2023-05-23T13:55:13.320Z,14.68
2023-05-23T13:57:39.802Z,14.87
2023-05-23T14:00:09.596Z,14.59
2023-05-23T14:02:36.646Z,14.71
2023-05-23T14:05:03.777Z,14.95
2023-05-23T14:07:31.349Z,15.09
2023-05-23T14:09:58.309Z,14.95
2023-05-23T14:12:24.721Z,14.93
2023-05-23T14:14:51.175Z,15.02
2023-05-23T14:17:18.725Z,15.11
2023-05-23T14:19:46.185Z,14.89
2023-05-23T14:22:12.918Z,15.03
2023-05-23T14:24:39.548Z,14.60
2023-05-23T14:27:08.069Z,14.57
2023-05-23T14:29:36.161Z,14.34
2023-05-23T14:32:04.140Z,14.21
2023-05-23T14:34:30.803Z,14.56
2023-05-23T14:36:57.375Z,14.53
2023-05-23T14:39:25.638Z,14.59
2023-05-23T14:41:52.734Z,14.70
2023-05-23T14:44:20.505Z,14.52
2023-05-23T14:46:50.296Z,14.33
2023-05-23T14:49:20.083Z,14.17
2023-05-23T14:51:50.876Z,14.15
2023-05-23T14:54:18.586Z,14.64
2023-05-23T14:56:45.620Z,14.26
2023-05-23T14:59:12.102Z,14.48
2023-05-23T15:01:40.496Z,14.43
2023-05-23T15:04:09.273Z,14.14
2023-05-23T15:06:37.987Z,14.12
2023-05-23T15:09:05.258Z,13.99
2023-05-23T15:11:35.326Z,13.98
2023-05-23T15:14:01.814Z,13.98
2023-05-23T15:16:32.528Z,13.80
2023-05-23T15:18:59.713Z,13.86
2023-05-23T15:21:26.965Z,13.95
2023-05-23T15:23:53.683Z,13.97
2023-05-23T15:26:20.257Z,14.16
2023-05-23T15:28:47.108Z,14.10
2023-05-23T15:31:13.647Z,14.29
2023-05-23T15:33:40.225Z,14.21
2023-05-23T15:36:07.358Z,13.97
2023-05-23T15:38:33.998Z,14.30
2023-05-23T15:41:01.150Z,14.05
2023-05-23T15:43:28.275Z,14.30
2023-05-23T15:45:54.896Z,14.00
2023-05-23T15:48:21.468Z,14.27
2023-05-23T15:50:47.990Z,14.41
2023-05-23T15:53:14.600Z,14.44
2023-05-23T15:55:42.529Z,14.14
2023-05-23T15:58:10.578Z,14.26
2023-05-23T16:00:37.175Z,14.21
2023-05-23T16:03:03.789Z,14.17
2023-05-23T16:05:31.662Z,14.12
2023-05-23T16:07:58.173Z,14.18
2023-05-23T16:10:25.474Z,14.31
2023-05-23T16:12:52.479Z,14.37
2023-05-23T16:15:18.976Z,14.28
2023-05-23T16:17:45.869Z,14.21
2023-05-23T16:20:12.989Z,14.31
2023-05-23T16:22:41.103Z,14.26
2023-05-23T16:25:09.266Z,14.36
2023-05-23T16:27:35.900Z,14.23
2023-05-23T16:30:03.261Z,14.26
2023-05-23T16:32:29.927Z,14.54
2023-05-23T16:34:56.566Z,14.67
2023-05-23T16:37:23.451Z,14.23
2023-05-23T16:39:49.976Z,14.43
2023-05-23T16:42:17.831Z,14.28
2023-05-23T16:44:45.895Z,14.64
2023-05-23T16:47:12.901Z,14.53
2023-05-23T16:49:39.477Z,14.63
2023-05-23T16:52:06.416Z,14.62
2023-05-23T16:54:32.901Z,14.62
2023-05-23T16:57:01.926Z,14.63
2023-05-23T16:59:29.893Z,14.53
2023-05-23T17:01:56.723Z,14.39
2023-05-23T17:04:24.144Z,14.64
2023-05-23T17:06:50.795Z,14.56
2023-05-23T17:09:18.165Z,14.43
2023-05-23T17:11:46.464Z,14.42
2023-05-23T17:14:12.986Z,14.60
2023-05-23T17:16:39.748Z,14.50
2023-05-23T17:19:06.812Z,14.72
2023-05-23T17:21:33.604Z,14.66
2023-05-23T17:24:00.252Z,14.78
2023-05-23T17:26:27.325Z,14.79
2023-05-23T17:28:53.854Z,14.76
2023-05-23T17:31:21.147Z,14.69
2023-05-23T17:33:47.715Z,14.53
2023-05-23T17:36:15.093Z,14.55
2023-05-23T17:38:41.853Z,14.61
2023-05-23T17:41:08.355Z,14.41
2023-05-23T17:43:34.859Z,14.56
2023-05-23T17:46:01.358Z,14.39
2023-05-23T17:48:38.756Z,14.60
2023-05-23T17:51:12.786Z,14.47
2023-05-23T17:53:41.484Z,14.59
2023-05-23T17:56:11.654Z,14.35
2023-05-23T17:58:40.303Z,14.64
2023-05-23T18:01:08.594Z,14.30
2023-05-23T18:03:35.374Z,14.02
2023-05-23T18:06:02.625Z,13.98
2023-05-23T18:08:29.158Z,14.05
2023-05-23T18:10:56.026Z,14.29
2023-05-23T18:13:22.610Z,14.18
2023-05-23T18:15:49.233Z,14.18
2023-05-23T18:18:16.951Z,14.12
2023-05-23T18:20:44.108Z,14.01
2023-05-23T18:23:10.934Z,13.59
2023-05-23T18:25:38.159Z,13.82
2023-05-23T18:28:04.748Z,13.63
2023-05-23T18:30:31.280Z,13.71
2023-05-23T18:32:59.188Z,13.73
2023-05-23T18:35:25.947Z,13.71
2023-05-23T18:37:53.755Z,13.34
2023-05-23T18:40:21.830Z,13.75
2023-05-23T18:42:48.558Z,13.62
2023-05-23T18:45:15.104Z,13.18
2023-05-23T18:47:42.179Z,13.34
2023-05-23T18:50:09.241Z,13.43
2023-05-23T18:52:37.369Z,13.20
2023-05-23T18:55:04.223Z,13.49
2023-05-23T18:57:32.310Z,13.45
2023-05-23T19:00:00.025Z,13.29
2023-05-23T19:02:27.192Z,13.48
2023-05-23T19:04:54.031Z,13.36
2023-05-23T19:07:20.653Z,13.54
2023-05-23T19:09:47.572Z,13.46
2023-05-23T19:12:14.028Z,13.13
2023-05-23T19:14:40.951Z,13.27
2023-05-23T19:17:07.358Z,13.22
2023-05-23T19:19:37.595Z,13.25
2023-05-23T19:22:04.708Z,13.27
2023-05-23T19:24:32.614Z,12.91
2023-05-23T19:26:59.671Z,13.02
2023-05-23T19:29:26.713Z,12.90
2023-05-23T19:31:53.748Z,12.89
2023-05-23T19:34:20.326Z,12.82
2023-05-23T19:36:46.804Z,13.04
2023-05-23T19:39:13.326Z,13.00
2023-05-23T19:41:40.787Z,12.89
2023-05-23T19:44:07.464Z,12.75
2023-05-23T19:46:34.337Z,12.86
2023-05-23T19:49:00.998Z,12.83
2023-05-23T19:51:29.147Z,12.52
2023-05-23T19:53:57.009Z,12.50
2023-05-23T19:56:25.812Z,12.73
2023-05-23T19:58:52.297Z,12.56
2023-05-23T20:01:18.991Z,12.48
2023-05-23T20:03:45.606Z,12.47
2023-05-23T20:06:16.339Z,12.54
2023-05-23T20:08:43.153Z,12.44
2023-05-23T20:11:10.499Z,12.54
2023-05-23T20:13:38.201Z,12.57
2023-05-23T20:16:04.833Z,12.23
2023-05-23T20:18:31.634Z,12.14
2023-05-23T20:20:58.280Z,12.37
2023-05-23T20:23:24.855Z,11.99
2023-05-23T20:25:51.846Z,12.36
2023-05-23T20:28:18.417Z,12.15
2023-05-23T20:30:44.932Z,12.14
2023-05-23T20:33:13.904Z,12.10
2023-05-23T20:35:42.665Z,12.21
2023-05-23T20:38:09.349Z,12.10
2023-05-23T20:40:36.048Z,11.76
2023-05-23T20:43:05.172Z,12.11
2023-05-23T20:45:32.840Z,11.94
2023-05-23T20:47:59.683Z,11.77
2023-05-23T20:50:26.615Z,11.70
2023-05-23T20:52:54.060Z,11.73
2023-05-23T20:55:20.680Z,11.91
2023-05-23T20:57:47.839Z,11.82
2023-05-23T21:00:14.844Z,11.78
2023-05-23T21:02:42.476Z,11.54
2023-05-23T21:05:10.655Z,11.40
2023-05-23T21:07:37.741Z,11.53
2023-05-23T21:10:05.033Z,11.54
2023-05-23T21:12:32.802Z,11.30
2023-05-23T21:14:59.363Z,11.45
2023-05-23T21:17:26.268Z,11.37
2023-05-23T21:19:52.788Z,11.23
2023-05-23T21:22:19.305Z,11.13
2023-05-23T21:24:45.938Z,11.23
2023-05-23T21:27:12.746Z,11.21
2023-05-23T21:29:39.263Z,10.92
2023-05-23T21:32:06.106Z,10.69
2023-05-23T21:34:32.669Z,10.35
2023-05-23T21:36:59.485Z,10.16
2023-05-23T21:39:39.538Z,9.99
2023-05-23T21:42:13.851Z,9.83
2023-05-23T21:44:40.973Z,9.50
2023-05-23T21:47:08.113Z,9.54
2023-05-23T21:49:35.577Z,9.62
2023-05-23T21:52:02.518Z,9.49
2023-05-23T21:54:34.721Z,9.41
2023-05-23T21:57:01.384Z,9.29
2023-05-23T21:59:27.951Z,9.27
2023-05-23T22:01:54.808Z,8.98
2023-05-23T22:04:21.403Z,8.95
2023-05-23T22:06:48.033Z,9.01
2023-05-23T22:09:15.546Z,9.07
2023-05-23T22:11:42.499Z,9.13
2023-05-23T22:14:09.445Z,8.64
2023-05-23T22:16:39.526Z,8.81
2023-05-23T22:19:07.204Z,8.79
2023-05-23T22:21:34.754Z,8.78
2023-05-23T22:24:01.294Z,8.61
2023-05-23T22:26:28.162Z,8.84
2023-05-23T22:28:55.252Z,8.57
2023-05-23T22:31:22.159Z,8.54
2023-05-23T22:33:48.821Z,8.39
2023-05-23T22:36:16.267Z,8.50
2023-05-23T22:38:43.062Z,8.44
2023-05-23T22:41:09.774Z,8.36
2023-05-23T22:43:37.264Z,8.32
2023-05-23T22:46:04.210Z,8.45
2023-05-23T22:48:33.807Z,8.31
2023-05-23T22:51:02.384Z,8.51
2023-05-23T22:53:30.109Z,8.51
2023-05-23T22:55:57.030Z,8.56
2023-05-23T22:58:23.536Z,8.24
2023-05-23T23:00:50.268Z,8.50
2023-05-23T23:03:17.156Z,8.22
2023-05-23T23:05:44.518Z,8.32
2023-05-23T23:08:11.054Z,8.00
2023-05-23T23:10:37.598Z,8.03
2023-05-23T23:13:04.649Z,7.93
2023-05-23T23:15:33.956Z,8.06
2023-05-23T23:18:01.228Z,7.74
2023-05-23T23:20:28.343Z,7.97
2023-05-23T23:22:55.222Z,7.98
2023-05-23T23:25:22.159Z,7.62
2023-05-23T23:27:48.886Z,7.77
2023-05-23T23:30:15.646Z,7.82
2023-05-23T23:32:42.251Z,7.64
2023-05-23T23:35:09.052Z,7.80
2023-05-23T23:37:35.751Z,7.70
2023-05-23T23:40:02.264Z,7.79
2023-05-23T23:42:28.909Z,7.73
2023-05-23T23:44:55.503Z,7.73
2023-05-23T23:47:22.093Z,7.83
2023-05-23T23:49:48.594Z,7.47
2023-05-23T23:52:15.931Z,7.66
2023-05-23T23:54:42.458Z,7.62
2023-05-23T23:57:13.704Z,7.67
2023-05-23T23:59:43.686Z,7.72
